createdAt,value
2022-11-05T00:01:41.116Z,22.64
2022-11-05T00:03:45.857Z,22.62
2022-11-05T00:05:50.407Z,22.6
2022-11-05T00:07:54.709Z,22.58
2022-11-05T00:09:59.034Z,22.55
2022-11-05T00:12:03.346Z,22.54
2022-11-05T00:14:07.626Z,22.52
2022-11-05T00:16:11.941Z,22.51
2022-11-05T00:18:16.251Z,22.49
2022-11-05T00:20:20.602Z,22.45
2022-11-05T00:22:24.990Z,22.43
2022-11-05T00:24:29.293Z,22.42
2022-11-05T00:26:33.585Z,22.43
2022-11-05T00:28:37.973Z,22.39
2022-11-05T00:30:42.286Z,22.36
2022-11-05T00:32:46.577Z,22.34
2022-11-05T00:34:50.968Z,22.34
2022-11-05T00:36:55.267Z,22.32
2022-11-05T00:38:59.598Z,22.32
2022-11-05T00:41:03.939Z,22.28
2022-11-05T00:43:08.514Z,22.28
2022-11-05T00:45:14.166Z,22.28
2022-11-05T00:47:18.464Z,22.26
2022-11-05T00:49:22.774Z,22.24
2022-11-05T00:51:27.092Z,22.23
2022-11-05T00:53:31.436Z,22.21
2022-11-05T00:55:35.732Z,22.2
2022-11-05T00:57:40.010Z,22.19
2022-11-05T00:59:44.325Z,22.19
2022-11-05T01:01:48.779Z,22.17
2022-11-05T01:03:53.790Z,22.16
2022-11-05T01:05:58.095Z,22.17
2022-11-05T01:08:02.428Z,22.17
2022-11-05T01:10:06.802Z,22.15
2022-11-05T01:12:11.135Z,22.14
2022-11-05T01:14:15.465Z,22.13
2022-11-05T01:16:19.783Z,22.11
2022-11-05T01:18:24.149Z,22.07
2022-11-05T01:20:28.448Z,22.06
2022-11-05T01:22:32.758Z,22.05
2022-11-05T01:24:37.081Z,21.99
2022-11-05T01:26:41.404Z,21.99
2022-11-05T01:28:45.775Z,21.95
2022-11-05T01:30:50.375Z,21.93
2022-11-05T01:32:54.661Z,21.93
2022-11-05T01:34:58.997Z,21.91
2022-11-05T01:37:03.297Z,21.9
2022-11-05T01:39:07.594Z,21.89
2022-11-05T01:41:11.912Z,21.86
2022-11-05T01:43:16.212Z,21.85
2022-11-05T01:45:20.518Z,21.86
2022-11-05T01:47:24.866Z,21.85
2022-11-05T01:49:29.186Z,21.81
2022-11-05T01:51:33.483Z,21.79
2022-11-05T01:53:37.812Z,21.79
2022-11-05T01:55:42.101Z,21.77
2022-11-05T01:57:46.409Z,21.76
2022-11-05T01:59:50.690Z,21.74
2022-11-05T02:01:55.134Z,21.74
2022-11-05T02:03:59.980Z,21.74
2022-11-05T02:06:04.281Z,21.72
2022-11-05T02:08:08.591Z,21.72
2022-11-05T02:10:12.853Z,21.72
2022-11-05T02:12:17.153Z,21.72
2022-11-05T02:14:21.462Z,21.71
2022-11-05T02:16:25.752Z,21.71
2022-11-05T02:18:30.061Z,21.7
2022-11-05T02:20:34.366Z,21.71
2022-11-05T02:22:38.659Z,21.69
2022-11-05T02:24:43.006Z,21.69
2022-11-05T02:26:47.319Z,21.66
2022-11-05T02:28:51.650Z,21.63
2022-11-05T02:30:55.943Z,21.61
2022-11-05T02:33:00.328Z,21.61
2022-11-05T02:35:04.600Z,21.58
2022-11-05T02:37:08.874Z,21.57
2022-11-05T02:39:13.244Z,21.57
2022-11-05T02:41:17.499Z,21.55
2022-11-05T02:43:21.766Z,21.57
2022-11-05T02:45:26.049Z,21.57
2022-11-05T02:47:30.345Z,21.54
2022-11-05T02:49:34.632Z,21.52
2022-11-05T02:51:38.947Z,21.52
2022-11-05T02:53:43.268Z,21.49
2022-11-05T02:55:47.660Z,21.48
2022-11-05T02:57:52.194Z,21.46
2022-11-05T02:59:56.490Z,21.45
2022-11-05T03:02:00.968Z,21.43
2022-11-05T03:04:05.857Z,21.42
2022-11-05T03:06:10.169Z,21.43
2022-11-05T03:08:14.431Z,21.43
2022-11-05T03:10:18.717Z,21.41
2022-11-05T03:12:23.054Z,21.4
2022-11-05T03:14:27.348Z,21.4
2022-11-05T03:16:31.676Z,21.42
2022-11-05T03:18:35.958Z,21.43
2022-11-05T03:20:40.232Z,21.42
2022-11-05T03:22:44.537Z,21.44
2022-11-05T03:24:48.816Z,21.44
2022-11-05T03:26:53.258Z,21.42
2022-11-05T03:28:57.665Z,21.4
2022-11-05T03:31:01.979Z,21.39
2022-11-05T03:33:06.340Z,21.37
2022-11-05T03:35:11.156Z,21.33
2022-11-05T03:37:15.460Z,21.3
2022-11-05T03:39:19.791Z,21.27
2022-11-05T03:41:24.085Z,21.25
2022-11-05T03:43:28.438Z,21.23
2022-11-05T03:45:32.733Z,21.2
2022-11-05T03:47:37.050Z,21.18
2022-11-05T03:49:41.328Z,21.15
2022-11-05T03:51:45.658Z,21.14
2022-11-05T03:53:49.986Z,21.12
2022-11-05T03:55:54.302Z,21.11
2022-11-05T03:57:58.610Z,21.09
2022-11-05T04:00:02.873Z,21.08
2022-11-05T04:02:07.343Z,21.06
2022-11-05T04:04:12.208Z,21.06
2022-11-05T04:06:16.477Z,21.05
2022-11-05T04:08:20.836Z,21.07
2022-11-05T04:10:25.134Z,21.07
2022-11-05T04:12:29.417Z,21.05
2022-11-05T04:14:33.709Z,21.04
2022-11-05T04:16:38.065Z,21.05
2022-11-05T04:18:42.381Z,21.04
2022-11-05T04:20:46.682Z,21.02
2022-11-05T04:22:50.984Z,21.01
2022-11-05T04:24:55.286Z,20.99
2022-11-05T04:26:59.582Z,20.98
2022-11-05T04:29:07.851Z,20.96
2022-11-05T04:31:12.287Z,20.96
2022-11-05T04:33:16.577Z,20.95
2022-11-05T04:35:20.898Z,20.96
2022-11-05T04:37:25.198Z,20.93
2022-11-05T04:39:29.512Z,20.93
2022-11-05T04:41:33.818Z,20.95
2022-11-05T04:43:38.103Z,20.95
2022-11-05T04:45:42.389Z,20.96
2022-11-05T04:47:46.755Z,20.96
2022-11-05T04:49:51.099Z,20.97
2022-11-05T04:51:55.434Z,20.98
2022-11-05T04:53:59.702Z,20.97
2022-11-05T04:56:03.968Z,20.96
2022-11-05T04:58:08.270Z,20.95
2022-11-05T05:00:12.537Z,20.93
2022-11-05T05:02:16.941Z,20.88
2022-11-05T05:04:21.478Z,20.87
2022-11-05T05:06:25.750Z,20.87
2022-11-05T05:08:30.054Z,20.87
2022-11-05T05:10:34.328Z,20.87
2022-11-05T05:12:38.655Z,20.86
2022-11-05T05:14:42.941Z,20.86
2022-11-05T05:16:47.258Z,20.84
2022-11-05T05:18:51.643Z,20.85
2022-11-05T05:20:55.920Z,20.84
2022-11-05T05:23:00.249Z,20.84
2022-11-05T05:25:04.503Z,20.84
2022-11-05T05:27:08.808Z,20.82
2022-11-05T05:29:13.111Z,20.83
2022-11-05T05:31:17.404Z,20.81
2022-11-05T05:33:21.712Z,20.83
2022-11-05T05:35:25.976Z,20.83
2022-11-05T05:37:30.322Z,20.82
2022-11-05T05:39:34.574Z,20.82
2022-11-05T05:41:38.862Z,20.82
2022-11-05T05:43:43.197Z,20.82
2022-11-05T05:45:47.446Z,20.83
2022-11-05T05:47:51.754Z,20.82
2022-11-05T05:49:56.048Z,20.81
2022-11-05T05:52:00.352Z,20.78
2022-11-05T05:54:05.194Z,20.77
2022-11-05T05:56:09.495Z,20.76
2022-11-05T05:58:13.802Z,20.76
2022-11-05T06:00:18.098Z,20.75
2022-11-05T06:02:22.549Z,20.76
2022-11-05T06:04:27.387Z,20.76
2022-11-05T06:06:31.674Z,20.76
2022-11-05T06:08:35.974Z,20.76
2022-11-05T06:10:40.386Z,20.76
2022-11-05T06:12:44.958Z,20.76
2022-11-05T06:14:49.258Z,20.75
2022-11-05T06:16:53.562Z,20.76
2022-11-05T06:18:57.850Z,20.75
2022-11-05T06:21:04.075Z,20.75
2022-11-05T06:23:08.684Z,20.75
2022-11-05T06:25:14.206Z,20.76
2022-11-05T06:27:18.517Z,20.78
2022-11-05T06:29:22.822Z,20.76
2022-11-05T06:31:27.123Z,20.77
2022-11-05T06:33:31.426Z,20.77
2022-11-05T06:35:35.697Z,20.76
2022-11-05T06:37:39.951Z,20.76
2022-11-05T06:39:44.494Z,20.75
2022-11-05T06:42:12.463Z,20.74
2022-11-05T06:44:22.989Z,20.75
2022-11-05T06:46:27.255Z,20.74
2022-11-05T06:48:31.551Z,20.74
2022-11-05T06:50:35.831Z,20.75
2022-11-05T06:52:41.292Z,20.74
2022-11-05T06:54:45.758Z,20.74
2022-11-05T06:56:50.059Z,20.74
2022-11-05T06:58:54.371Z,20.74
2022-11-05T07:00:58.688Z,20.73
2022-11-05T07:03:03.295Z,20.75
2022-11-05T07:05:07.638Z,20.75
2022-11-05T07:07:11.925Z,20.74
2022-11-05T07:09:16.224Z,20.72
2022-11-05T07:11:20.529Z,20.73
2022-11-05T07:13:24.784Z,20.73
2022-11-05T07:15:29.135Z,20.73
2022-11-05T07:17:33.427Z,20.73
2022-11-05T07:19:37.722Z,20.74
2022-11-05T07:21:41.997Z,20.74
2022-11-05T07:23:46.310Z,20.75
2022-11-05T07:25:50.612Z,20.74
2022-11-05T07:27:54.893Z,20.74
2022-11-05T07:29:59.196Z,20.74
2022-11-05T07:32:03.619Z,20.74
2022-11-05T07:34:07.892Z,20.74
2022-11-05T07:36:12.162Z,20.73
2022-11-05T07:38:16.481Z,20.74
2022-11-05T07:40:20.804Z,20.74
2022-11-05T07:42:25.099Z,20.74
2022-11-05T07:44:29.411Z,20.73
2022-11-05T07:46:33.715Z,20.72
2022-11-05T07:48:38.023Z,20.74
2022-11-05T07:50:42.348Z,20.74
2022-11-05T07:52:46.617Z,20.74
2022-11-05T07:54:50.930Z,20.74
2022-11-05T07:56:55.213Z,20.74
2022-11-05T07:58:59.516Z,20.76
2022-11-05T08:01:03.915Z,20.76
2022-11-05T08:03:09.105Z,20.76
2022-11-05T08:05:14.618Z,20.76
2022-11-05T08:07:18.916Z,20.77
2022-11-05T08:09:23.197Z,20.76
2022-11-05T08:11:27.505Z,20.76
2022-11-05T08:13:31.792Z,20.76
2022-11-05T08:15:36.101Z,20.76
2022-11-05T08:17:40.420Z,20.77
2022-11-05T08:19:44.718Z,20.78
2022-11-05T08:21:49.035Z,20.8
2022-11-05T08:23:53.334Z,20.81
2022-11-05T08:25:57.653Z,20.84
2022-11-05T08:28:01.974Z,20.85
2022-11-05T08:30:06.296Z,20.85
2022-11-05T08:32:10.592Z,20.87
2022-11-05T08:34:14.870Z,20.89
2022-11-05T08:36:19.158Z,20.89
2022-11-05T08:38:23.499Z,20.9
2022-11-05T08:40:27.866Z,20.91
2022-11-05T08:42:32.225Z,20.93
2022-11-05T08:44:36.579Z,20.99
2022-11-05T08:46:41.769Z,21.07
2022-11-05T08:48:46.215Z,21.14
2022-11-05T08:50:50.595Z,21.21
2022-11-05T08:52:54.928Z,21.28
2022-11-05T08:54:59.282Z,21.33
2022-11-05T08:57:03.647Z,21.39
2022-11-05T08:59:07.979Z,21.45
2022-11-05T09:01:12.396Z,21.51
2022-11-05T09:03:16.887Z,21.58
2022-11-05T09:05:21.219Z,21.63
2022-11-05T09:07:25.615Z,21.67
2022-11-05T09:09:29.944Z,21.71
2022-11-05T09:11:57.328Z,21.74
2022-11-05T09:14:16.362Z,21.81
2022-11-05T09:16:20.768Z,21.85
2022-11-05T09:18:25.160Z,21.88
2022-11-05T09:20:29.487Z,21.91
2022-11-05T09:22:35.975Z,21.93
2022-11-05T09:24:46.634Z,21.95
2022-11-05T09:26:51.017Z,21.99
2022-11-05T09:28:55.385Z,22.04
2022-11-05T09:30:59.714Z,22.07
2022-11-05T09:33:04.100Z,22.12
2022-11-05T09:35:08.461Z,22.16
2022-11-05T09:37:12.851Z,22.2
2022-11-05T09:39:17.208Z,22.23
2022-11-05T09:41:21.595Z,22.27
2022-11-05T09:43:30.336Z,22.3
2022-11-05T09:45:35.873Z,22.32
2022-11-05T09:47:40.286Z,22.36
2022-11-05T09:49:44.671Z,22.39
2022-11-05T09:51:49.000Z,22.42
2022-11-05T09:53:53.380Z,22.46
2022-11-05T09:55:57.712Z,22.48
2022-11-05T09:58:02.204Z,22.51
2022-11-05T10:00:06.535Z,22.52
2022-11-05T10:02:11.025Z,22.54
2022-11-05T10:04:15.627Z,22.58
2022-11-05T10:06:19.964Z,22.59
2022-11-05T10:08:24.502Z,22.61
2022-11-05T10:10:28.820Z,22.63
2022-11-05T10:12:33.215Z,22.63
2022-11-05T10:14:37.592Z,22.65
2022-11-05T10:16:41.988Z,22.67
2022-11-05T10:18:46.321Z,22.68
2022-11-05T10:20:50.676Z,22.67
2022-11-05T10:22:55.033Z,22.7
2022-11-05T10:24:59.417Z,22.7
2022-11-05T10:27:03.770Z,22.7
2022-11-05T10:29:08.108Z,22.7
2022-11-05T10:31:12.494Z,22.72
2022-11-05T10:33:16.835Z,22.73
2022-11-05T10:35:21.206Z,22.72
2022-11-05T10:37:25.570Z,22.73
2022-11-05T10:39:29.962Z,22.74
2022-11-05T10:41:34.326Z,22.74
2022-11-05T10:43:38.668Z,22.75
2022-11-05T10:45:43.015Z,22.76
2022-11-05T10:47:47.715Z,22.78
2022-11-05T10:49:52.182Z,22.79
2022-11-05T10:51:56.505Z,22.8
2022-11-05T10:54:02.232Z,22.82
2022-11-05T10:56:06.697Z,22.85
2022-11-05T10:58:11.051Z,22.87
2022-11-05T11:00:15.384Z,22.88
2022-11-05T11:02:19.817Z,22.89
2022-11-05T11:04:24.491Z,22.89
2022-11-05T11:06:28.816Z,22.9
2022-11-05T11:08:33.183Z,22.92
2022-11-05T11:10:37.531Z,22.93
2022-11-05T11:12:41.895Z,22.93
2022-11-05T11:14:46.274Z,22.94
2022-11-05T11:16:50.617Z,22.95
2022-11-05T11:18:54.995Z,22.97
2022-11-05T11:20:59.389Z,22.99
2022-11-05T11:23:03.695Z,23.01
2022-11-05T11:25:08.033Z,23.03
2022-11-05T11:27:12.423Z,23.06
2022-11-05T11:29:16.761Z,23.08
2022-11-05T11:31:21.187Z,23.1
2022-11-05T11:33:25.532Z,23.12
2022-11-05T11:35:29.893Z,23.14
2022-11-05T11:37:34.221Z,23.15
2022-11-05T11:39:38.518Z,23.16
2022-11-05T11:41:42.895Z,23.17
2022-11-05T11:43:47.260Z,23.17
2022-11-05T11:45:51.609Z,23.19
2022-11-05T11:47:55.970Z,23.2
2022-11-05T11:50:00.332Z,23.21
2022-11-05T11:52:04.789Z,23.22
2022-11-05T11:54:09.122Z,23.23
2022-11-05T11:56:13.443Z,23.24
2022-11-05T11:58:17.804Z,23.25
2022-11-05T12:00:22.125Z,23.25
2022-11-05T12:02:26.556Z,23.21
2022-11-05T12:04:31.047Z,23.17
2022-11-05T12:06:35.357Z,23.12
2022-11-05T12:08:44.474Z,23.09
2022-11-05T12:11:00.737Z,23.06
2022-11-05T12:13:05.068Z,23.04
2022-11-05T12:15:09.481Z,23.03
2022-11-05T12:17:13.886Z,23.01
2022-11-05T12:19:18.177Z,23.01
2022-11-05T12:21:40.987Z,23.01
2022-11-05T12:23:56.893Z,23
2022-11-05T12:26:01.271Z,23
2022-11-05T12:28:05.638Z,22.99
2022-11-05T12:30:09.967Z,22.98
2022-11-05T12:32:14.347Z,22.99
2022-11-05T12:34:18.907Z,23
2022-11-05T12:36:23.267Z,23
2022-11-05T12:38:27.661Z,23.01
2022-11-05T12:40:31.987Z,22.99
2022-11-05T12:42:36.362Z,22.98
2022-11-05T12:44:40.776Z,22.96
2022-11-05T12:46:45.170Z,22.95
2022-11-05T12:48:49.563Z,22.94
2022-11-05T12:50:53.956Z,22.93
2022-11-05T12:52:58.303Z,22.92
2022-11-05T12:55:02.646Z,22.92
2022-11-05T12:57:07.036Z,22.93
2022-11-05T12:59:11.406Z,22.95
2022-11-05T13:01:15.923Z,22.96
2022-11-05T13:03:21.040Z,22.97
2022-11-05T13:05:25.450Z,22.99
2022-11-05T13:07:29.819Z,22.98
2022-11-05T13:09:34.212Z,22.99
2022-11-05T13:11:38.538Z,22.98
2022-11-05T13:13:42.911Z,22.98
2022-11-05T13:15:47.243Z,22.97
2022-11-05T13:17:51.609Z,22.95
2022-11-05T13:19:55.976Z,22.98
2022-11-05T13:22:00.351Z,23.02
2022-11-05T13:24:04.734Z,23.05
2022-11-05T13:26:09.105Z,23.09
2022-11-05T13:28:20.991Z,23.13
2022-11-05T13:30:25.375Z,23.17
2022-11-05T13:32:29.941Z,23.21
2022-11-05T13:34:37.506Z,23.24
2022-11-05T13:36:42.203Z,23.26
2022-11-05T13:38:46.601Z,23.28
2022-11-05T13:40:50.988Z,23.31
2022-11-05T13:42:55.307Z,23.33
2022-11-05T13:44:59.673Z,23.34
2022-11-05T13:47:04.023Z,23.37
2022-11-05T13:49:08.407Z,23.39
2022-11-05T13:51:12.769Z,23.39
2022-11-05T13:53:17.111Z,23.41
2022-11-05T13:55:21.627Z,23.42
2022-11-05T13:57:25.999Z,23.44
2022-11-05T13:59:30.338Z,23.46
2022-11-05T14:01:34.808Z,23.45
2022-11-05T14:03:39.601Z,23.48
2022-11-05T14:05:43.992Z,23.5
2022-11-05T14:07:48.355Z,23.51
2022-11-05T14:09:52.719Z,23.53
2022-11-05T14:11:57.189Z,23.54
2022-11-05T14:14:01.578Z,23.56
2022-11-05T14:16:06.089Z,23.57
2022-11-05T14:18:10.467Z,23.58
2022-11-05T14:20:14.834Z,23.59
2022-11-05T14:22:19.187Z,23.6
2022-11-05T14:24:23.567Z,23.6
2022-11-05T14:26:27.928Z,23.59
2022-11-05T14:28:32.311Z,23.59
2022-11-05T14:30:40.793Z,23.59
2022-11-05T14:32:45.472Z,23.58
2022-11-05T14:34:49.809Z,23.55
2022-11-05T14:36:54.193Z,23.54
2022-11-05T14:39:03.123Z,23.56
2022-11-05T14:41:08.535Z,23.56
2022-11-05T14:43:13.232Z,23.58
2022-11-05T14:45:18.313Z,23.58
2022-11-05T14:47:22.659Z,23.6
2022-11-05T14:49:27.021Z,23.61
2022-11-05T14:51:31.359Z,23.62
2022-11-05T14:53:35.725Z,23.64
2022-11-05T14:55:40.111Z,23.64
2022-11-05T14:57:44.431Z,23.64
2022-11-05T14:59:48.861Z,23.64
2022-11-05T15:01:53.363Z,23.63
2022-11-05T15:03:58.349Z,23.64
2022-11-05T15:06:02.963Z,23.64
2022-11-05T15:08:07.326Z,23.65
2022-11-05T15:10:11.780Z,23.66
2022-11-05T15:12:16.285Z,23.66
2022-11-05T15:14:20.666Z,23.66
2022-11-05T15:16:25.046Z,23.67
2022-11-05T15:18:29.393Z,23.67
2022-11-05T15:20:38.780Z,23.68
2022-11-05T15:22:44.227Z,23.69
2022-11-05T15:24:48.622Z,23.71
2022-11-05T15:26:53.005Z,23.73
2022-11-05T15:28:57.359Z,23.74
2022-11-05T15:31:01.723Z,23.74
2022-11-05T15:33:06.085Z,23.75
2022-11-05T15:35:10.584Z,23.74
2022-11-05T15:37:14.940Z,23.74
2022-11-05T15:39:30.646Z,23.73
2022-11-05T15:41:35.063Z,23.7
2022-11-05T15:43:42.715Z,23.68
2022-11-05T15:45:51.698Z,23.65
2022-11-05T15:47:56.104Z,23.64
2022-11-05T15:50:00.505Z,23.63
2022-11-05T15:52:05.106Z,23.62
2022-11-05T15:54:28.897Z,23.63
2022-11-05T15:56:35.689Z,23.62
2022-11-05T15:58:40.056Z,23.62
2022-11-05T16:00:44.435Z,23.64
2022-11-05T16:02:48.901Z,23.63
2022-11-05T16:04:53.479Z,23.63
2022-11-05T16:06:57.850Z,23.63
2022-11-05T16:09:02.229Z,23.62
2022-11-05T16:11:06.648Z,23.61
2022-11-05T16:13:11.238Z,23.61
2022-11-05T16:15:16.815Z,23.6
2022-11-05T16:17:21.160Z,23.6
2022-11-05T16:19:25.547Z,23.63
2022-11-05T16:21:29.906Z,23.65
2022-11-05T16:23:34.286Z,23.69
2022-11-05T16:25:38.709Z,23.74
2022-11-05T16:27:43.078Z,23.78
2022-11-05T16:29:47.449Z,23.79
2022-11-05T16:31:51.800Z,23.79
2022-11-05T16:33:56.183Z,23.76
2022-11-05T16:36:00.574Z,23.71
2022-11-05T16:38:04.962Z,23.65
2022-11-05T16:40:09.334Z,23.58
2022-11-05T16:42:13.724Z,23.52
2022-11-05T16:44:18.115Z,23.46
2022-11-05T16:46:22.476Z,23.42
2022-11-05T16:48:26.904Z,23.38
2022-11-05T16:50:31.290Z,23.34
2022-11-05T16:52:35.637Z,23.29
2022-11-05T16:54:40.009Z,23.27
2022-11-05T16:56:44.404Z,23.24
2022-11-05T16:58:48.771Z,23.22
2022-11-05T17:00:53.143Z,23.19
2022-11-05T17:02:57.589Z,23.17
2022-11-05T17:05:17.421Z,23.14
2022-11-05T17:07:22.211Z,23.11
2022-11-05T17:09:26.583Z,23.09
2022-11-05T17:11:30.991Z,23.07
2022-11-05T17:13:35.353Z,23.06
2022-11-05T17:15:39.710Z,23.04
2022-11-05T17:17:44.074Z,23.02
2022-11-05T17:19:48.681Z,23.04
2022-11-05T17:21:53.129Z,23.04
2022-11-05T17:23:57.454Z,23.04
2022-11-05T17:26:01.817Z,23.05
2022-11-05T17:28:06.205Z,23.05
2022-11-05T17:30:13.531Z,23.05
2022-11-05T17:32:18.047Z,23.03
2022-11-05T17:34:22.681Z,23.03
2022-11-05T17:36:27.073Z,23.04
2022-11-05T17:38:31.437Z,23.03
2022-11-05T17:40:35.826Z,23
2022-11-05T17:42:40.155Z,22.99
2022-11-05T17:44:44.534Z,22.97
2022-11-05T17:46:48.891Z,22.92
2022-11-05T17:48:53.303Z,22.9
2022-11-05T17:50:57.629Z,22.9
2022-11-05T17:53:02.026Z,22.89
2022-11-05T17:55:06.431Z,22.87
2022-11-05T17:57:10.873Z,22.88
2022-11-05T17:59:15.248Z,22.87
2022-11-05T18:01:19.678Z,22.86
2022-11-05T18:03:24.528Z,22.87
2022-11-05T18:05:28.930Z,22.87
2022-11-05T18:07:34.146Z,22.84
2022-11-05T18:09:38.528Z,22.83
2022-11-05T18:11:42.940Z,22.86
2022-11-05T18:13:47.298Z,22.94
2022-11-05T18:15:51.694Z,23.03
2022-11-05T18:17:56.077Z,23.11
2022-11-05T18:20:00.474Z,23.21
2022-11-05T18:22:04.903Z,23.26
2022-11-05T18:24:09.267Z,23.33
2022-11-05T18:26:13.661Z,23.37
2022-11-05T18:28:18.074Z,23.43
2022-11-05T18:30:22.422Z,23.45
2022-11-05T18:32:26.836Z,23.5
2022-11-05T18:34:31.199Z,23.54
2022-11-05T18:36:35.540Z,23.57
2022-11-05T18:38:39.911Z,23.6
2022-11-05T18:40:44.264Z,23.63
2022-11-05T18:42:48.688Z,23.67
2022-11-05T18:44:53.056Z,23.7
2022-11-05T18:46:58.578Z,23.72
2022-11-05T18:49:03.303Z,23.74
2022-11-05T18:51:07.679Z,23.76
2022-11-05T18:53:12.060Z,23.78
2022-11-05T18:55:16.411Z,23.79
2022-11-05T18:57:20.785Z,23.82
2022-11-05T18:59:40.666Z,23.83
2022-11-05T19:01:45.185Z,23.85
2022-11-05T19:03:50.136Z,23.87
2022-11-05T19:05:54.515Z,23.9
2022-11-05T19:07:58.871Z,23.92
2022-11-05T19:10:03.301Z,23.92
2022-11-05T19:12:07.660Z,23.92
2022-11-05T19:14:12.047Z,23.93
2022-11-05T19:16:16.433Z,23.94
2022-11-05T19:18:20.856Z,23.95
2022-11-05T19:20:25.220Z,23.96
2022-11-05T19:22:30.588Z,23.97
2022-11-05T19:24:34.968Z,23.98
2022-11-05T19:26:39.502Z,23.98
2022-11-05T19:28:43.945Z,24
2022-11-05T19:30:48.334Z,24
2022-11-05T19:32:52.724Z,24.03
2022-11-05T19:34:57.085Z,24.03
2022-11-05T19:37:01.436Z,24.03
2022-11-05T19:39:05.830Z,24.02
2022-11-05T19:41:10.205Z,24.03
2022-11-05T19:43:14.665Z,24.04
2022-11-05T19:47:53.492Z,24.07
2022-11-05T19:49:57.852Z,24.08
2022-11-05T19:52:02.227Z,24.1
2022-11-05T19:54:06.642Z,24.11
2022-11-05T19:56:11.019Z,24.11
2022-11-05T19:58:15.563Z,24.12
2022-11-05T20:00:20.017Z,24.14
2022-11-05T20:02:24.507Z,24.15
2022-11-05T20:04:29.537Z,24.16
2022-11-05T20:06:33.902Z,24.15
2022-11-05T20:08:53.256Z,24.09
2022-11-05T20:11:34.413Z,23.93
2022-11-05T20:13:38.781Z,23.83
2022-11-05T20:15:43.194Z,23.75
2022-11-05T20:17:47.609Z,23.68
2022-11-05T20:19:52.038Z,23.64
2022-11-05T20:21:56.416Z,23.58
2022-11-05T20:24:00.888Z,23.53
2022-11-05T20:26:05.293Z,23.47
2022-11-05T20:28:09.943Z,23.43
2022-11-05T20:30:15.324Z,23.38
2022-11-05T20:32:19.723Z,23.34
2022-11-05T20:34:24.139Z,23.32
2022-11-05T20:36:28.502Z,23.3
2022-11-05T20:38:32.898Z,23.27
2022-11-05T20:40:37.288Z,23.25
2022-11-05T20:42:41.700Z,23.22
2022-11-05T20:44:46.069Z,23.2
2022-11-05T20:46:50.471Z,23.19
2022-11-05T20:48:54.882Z,23.17
2022-11-05T20:50:59.284Z,23.16
2022-11-05T20:53:03.887Z,23.14
2022-11-05T20:55:08.298Z,23.12
2022-11-05T20:57:12.700Z,23.1
2022-11-05T20:59:17.115Z,23.09
2022-11-05T21:01:21.597Z,23.09
2022-11-05T21:03:26.390Z,23.07
2022-11-05T21:05:35.269Z,23.07
2022-11-05T21:07:39.907Z,23.06
2022-11-05T21:09:44.272Z,23.04
2022-11-05T21:11:48.662Z,23.03
2022-11-05T21:13:53.058Z,23.02
2022-11-05T21:15:57.421Z,23.03
2022-11-05T21:18:01.788Z,23.03
2022-11-05T21:20:06.152Z,23.03
2022-11-05T21:22:10.485Z,23.02
2022-11-05T21:24:14.842Z,23.02
2022-11-05T21:26:19.237Z,23.02
2022-11-05T21:28:23.594Z,23
2022-11-05T21:30:27.995Z,22.98
2022-11-05T21:32:32.390Z,22.98
2022-11-05T21:34:36.776Z,22.96
2022-11-05T21:36:41.211Z,22.96
2022-11-05T21:38:45.568Z,22.96
2022-11-05T21:40:49.965Z,22.95
2022-11-05T21:42:54.372Z,22.95
2022-11-05T21:45:00.494Z,22.95
2022-11-05T21:47:05.192Z,22.94
2022-11-05T21:49:09.554Z,22.98
2022-11-05T21:51:13.926Z,22.98
2022-11-05T21:53:18.294Z,22.98
2022-11-05T21:55:22.640Z,22.98
2022-11-05T21:57:27.021Z,22.97
2022-11-05T21:59:31.401Z,22.96
2022-11-05T22:01:35.856Z,22.94
2022-11-05T22:03:40.725Z,22.93
2022-11-05T22:05:45.253Z,22.93
2022-11-05T22:07:49.689Z,22.93
2022-11-05T22:09:54.208Z,22.91
2022-11-05T22:11:58.669Z,22.89
2022-11-05T22:14:03.321Z,22.85
2022-11-05T22:16:07.708Z,22.8
2022-11-05T22:18:12.424Z,22.77
2022-11-05T22:20:18.036Z,22.74
2022-11-05T22:22:22.399Z,22.77
2022-11-05T22:24:26.755Z,22.78
2022-11-05T22:26:31.155Z,22.77
2022-11-05T22:28:35.496Z,22.76
2022-11-05T22:30:39.899Z,22.75
2022-11-05T22:32:44.276Z,22.75
2022-11-05T22:34:48.733Z,22.74
2022-11-05T22:36:53.124Z,22.71
2022-11-05T22:38:57.494Z,22.71
2022-11-05T22:41:01.844Z,22.69
2022-11-05T22:43:06.192Z,22.69
2022-11-05T22:45:10.613Z,22.68
2022-11-05T22:47:15.015Z,22.67
2022-11-05T22:49:19.362Z,22.66
2022-11-05T22:51:23.724Z,22.66
2022-11-05T22:53:28.076Z,22.65
2022-11-05T22:55:32.399Z,22.63
2022-11-05T22:57:36.834Z,22.63
2022-11-05T22:59:41.188Z,22.63
2022-11-05T23:01:45.744Z,22.65
2022-11-05T23:03:50.752Z,22.64
2022-11-05T23:05:55.118Z,22.63
2022-11-05T23:07:59.521Z,22.61
2022-11-05T23:10:03.938Z,22.59
2022-11-05T23:12:08.330Z,22.56
2022-11-05T23:14:12.721Z,22.54
2022-11-05T23:16:17.101Z,22.53
2022-11-05T23:18:21.502Z,22.54
2022-11-05T23:20:25.915Z,22.54
2022-11-05T23:22:30.334Z,22.54
2022-11-05T23:24:34.709Z,22.53
2022-11-05T23:26:39.118Z,22.53
2022-11-05T23:28:43.532Z,22.55
2022-11-05T23:30:47.907Z,22.55
2022-11-05T23:32:52.281Z,22.54
2022-11-05T23:34:56.671Z,22.54
2022-11-05T23:37:01.060Z,22.54
2022-11-05T23:39:05.421Z,22.52
2022-11-05T23:41:09.849Z,22.51
2022-11-05T23:43:14.196Z,22.51
2022-11-05T23:45:18.542Z,22.5
2022-11-05T23:47:22.919Z,22.49
2022-11-05T23:49:27.248Z,22.47
2022-11-05T23:51:31.597Z,22.46
2022-11-05T23:53:36.020Z,22.45
2022-11-05T23:55:40.359Z,22.44
2022-11-05T23:57:44.714Z,22.44
2022-11-05T23:59:49.054Z,22.43
